Time;durP1;ratioP1;P1;durP2;ratioP2;P2;SDS_P1;SDS_P2;PMS_P1;PMS_P2;Temp;Humidity;BMP_temperature;BMP_pressure;BME280_temperature;BME280_humidity;BME280_pressure;Samples;Min_cycle;Max_cycle;Signal;HPM_P1;HPM_P2
2023/05/31 00:01:25;;;;;;;9.52;4.97;;;;;;;11.99;100.00;102482.63;5089743;28;20074;-71
2023/05/31 00:03:50;;;;;;;10.27;5.72;;;;;;;11.95;100.00;102478.63;5090266;28;20037;-71
2023/05/31 00:06:15;;;;;;;8.00;4.82;;;;;;;11.92;100.00;102473.59;5089793;28;20038;-71
2023/05/31 00:08:41;;;;;;;6.50;4.13;;;;;;;11.92;100.00;102481.59;5090081;28;20421;-71
2023/05/31 00:11:07;;;;;;;9.63;4.82;;;;;;;11.84;100.00;102469.91;5071675;28;20058;-71
2023/05/31 00:13:32;;;;;;;7.18;4.75;;;;;;;11.88;100.00;102483.78;5089732;28;20032;-71
2023/05/31 00:15:58;;;;;;;9.38;5.95;;;;;;;11.82;100.00;102469.22;5089785;28;20117;-71
2023/05/31 00:18:23;;;;;;;9.90;5.05;;;;;;;11.86;100.00;102480.44;5089747;28;20035;-71
2023/05/31 00:20:49;;;;;;;9.60;5.10;;;;;;;11.82;100.00;102474.56;5089600;28;20035;-71
2023/05/31 00:23:15;;;;;;;9.32;4.65;;;;;;;11.82;100.00;102479.06;5089598;28;20028;-71
2023/05/31 00:25:40;;;;;;;8.25;4.93;;;;;;;11.77;100.00;102470.72;5089563;28;20112;-71
2023/05/31 00:28:06;;;;;;;9.45;5.25;;;;;;;11.76;100.00;102477.91;5089588;28;20039;-71
2023/05/31 00:30:31;;;;;;;7.93;5.43;;;;;;;11.77;100.00;102481.41;5089452;28;20032;-71
2023/05/31 00:32:56;;;;;;;9.25;5.32;;;;;;;11.76;100.00;102490.41;5089540;28;20024;-71
2023/05/31 00:35:22;;;;;;;8.57;4.93;;;;;;;11.74;100.00;102479.06;5089133;28;20107;-71
2023/05/31 00:37:47;;;;;;;9.48;5.32;;;;;;;11.72;100.00;102473.03;5071114;28;20094;-71
2023/05/31 00:40:12;;;;;;;12.55;5.22;;;;;;;11.67;100.00;102476.19;5071504;28;20036;-72
2023/05/31 00:42:38;;;;;;;8.68;5.03;;;;;;;11.66;100.00;102473.69;5089550;28;20028;-71
2023/05/31 00:45:06;;;;;;;9.43;5.10;;;;;;;11.68;100.00;102474.34;5089448;28;20028;-71
2023/05/31 00:47:32;;;;;;;11.65;5.28;;;;;;;11.65;100.00;102478.19;5089307;28;20024;-71
2023/05/31 00:49:58;;;;;;;8.48;5.30;;;;;;;11.62;100.00;102483.88;5089317;28;20146;-71
2023/05/31 00:52:25;;;;;;;9.82;5.55;;;;;;;11.58;100.00;102482.50;5089259;28;20600;-71
2023/05/31 00:54:50;;;;;;;10.38;5.53;;;;;;;11.51;100.00;102473.50;5089302;28;20060;-71
2023/05/31 00:57:16;;;;;;;9.07;5.72;;;;;;;11.56;100.00;102492.56;5089325;28;20124;-71
2023/05/31 00:59:41;;;;;;;9.55;4.97;;;;;;;11.55;100.00;102489.03;5089468;28;20614;-71
2023/05/31 01:02:07;;;;;;;10.07;4.93;;;;;;;11.50;100.00;102485.16;5089237;28;20509;-72
2023/05/31 01:04:32;;;;;;;8.05;5.22;;;;;;;11.52;100.00;102485.84;5089020;28;20039;-71
2023/05/31 01:07:00;;;;;;;10.95;5.63;;;;;;;11.45;100.00;102484.81;5070804;28;20119;-71
2023/05/31 01:09:28;;;;;;;11.20;5.05;;;;;;;11.47;100.00;102490.84;5089497;28;20482;-71
2023/05/31 01:12:14;;;;;;;8.48;4.97;;;;;;;11.45;100.00;102490.16;5093192;28;20036;-71
2023/05/31 01:14:53;;;;;;;10.25;5.38;;;;;;;11.40;100.00;102488.00;5093174;28;20479;-71
2023/05/31 01:17:30;;;;;;;11.40;5.07;;;;;;;11.36;100.00;102495.47;5093068;28;20339;-71
2023/05/31 01:20:00;;;;;;;8.80;5.60;;;;;;;11.38;100.00;102488.13;5093057;28;20026;-71
2023/05/31 01:22:43;;;;;;;10.65;5.57;;;;;;;11.36;100.00;102495.47;5093068;28;20074;-71
2023/05/31 01:25:33;;;;;;;11.52;5.85;;;;;;;11.35;100.00;102496.47;5092834;28;20019;-71
2023/05/31 01:28:00;;;;;;;10.48;5.75;;;;;;;11.31;100.00;102489.78;5092918;28;20467;-71
2023/05/31 01:30:29;;;;;;;10.50;5.40;;;;;;;11.30;100.00;102489.94;5092562;28;20059;-71
2023/05/31 01:32:57;;;;;;;9.23;5.03;;;;;;;11.25;100.00;102492.28;5092770;28;20086;-71
2023/05/31 01:35:22;;;;;;;10.43;5.82;;;;;;;11.23;100.00;102500.44;5092613;28;20433;-71
2023/05/31 01:37:48;;;;;;;8.50;5.00;;;;;;;11.22;100.00;102490.75;5092330;28;20536;-71
2023/05/31 01:40:15;;;;;;;11.23;5.95;;;;;;;11.19;100.00;102488.41;5112853;28;20035;-71
2023/05/31 01:42:42;;;;;;;10.40;5.15;;;;;;;11.15;100.00;102487.88;5112263;28;20034;-71
2023/05/31 01:45:09;;;;;;;12.25;6.78;;;;;;;11.15;100.00;102490.53;5093654;28;20027;-71
2023/05/31 01:47:35;;;;;;;8.88;4.95;;;;;;;11.11;100.00;102483.88;5112075;28;20038;-71
2023/05/31 01:50:02;;;;;;;10.27;5.22;;;;;;;11.07;100.00;102481.66;5112071;28;20039;-71
2023/05/31 01:52:28;;;;;;;9.80;5.60;;;;;;;11.04;100.00;102479.31;5111883;28;20505;-71
2023/05/31 01:54:53;;;;;;;11.57;5.80;;;;;;;11.06;100.00;102480.84;5112086;28;20036;-71
2023/05/31 01:57:19;;;;;;;9.82;5.55;;;;;;;11.01;100.00;102471.63;5112052;28;20038;-71
2023/05/31 01:59:46;;;;;;;11.18;6.28;;;;;;;11.02;100.00;102474.13;5111804;28;20042;-71
2023/05/31 02:02:11;;;;;;;12.50;6.38;;;;;;;11.01;100.00;102474.31;5092736;28;20539;-71
2023/05/31 02:04:37;;;;;;;11.30;6.30;;;;;;;10.95;100.00;102473.94;5092225;28;20028;-71
2023/05/31 02:07:02;;;;;;;9.35;5.13;;;;;;;10.99;100.00;102463.78;5092122;28;20028;-71
2023/05/31 02:09:28;;;;;;;10.63;6.22;;;;;;;10.95;100.00;102465.94;5091897;28;20042;-71
2023/05/31 02:11:53;;;;;;;11.13;6.00;;;;;;;10.93;100.00;102475.09;5092213;28;20038;-71
2023/05/31 02:14:18;;;;;;;10.25;5.00;;;;;;;10.94;100.00;102468.75;5091796;28;20645;-71
2023/05/31 02:16:44;;;;;;;14.07;7.05;;;;;;;10.86;100.00;102469.53;5091840;28;20035;-71
2023/05/31 02:19:13;;;;;;;12.55;6.97;;;;;;;10.85;100.00;102467.88;5073756;28;20020;-71
2023/05/31 02:21:39;;;;;;;11.90;5.97;;;;;;;10.85;100.00;102456.38;5091680;28;20016;-71
2023/05/31 02:24:05;;;;;;;12.48;5.45;;;;;;;10.83;100.00;102466.38;5091835;28;20032;-71
2023/05/31 02:26:30;;;;;;;14.43;6.85;;;;;;;10.86;100.00;102468.72;5073699;28;20110;-71
2023/05/31 02:28:55;;;;;;;11.60;6.00;;;;;;;10.83;100.00;102463.69;5104879;28;20032;-71
2023/05/31 02:31:21;;;;;;;12.55;7.30;;;;;;;10.80;100.00;102464.84;5111235;28;20070;-71
2023/05/31 02:33:47;;;;;;;12.90;7.47;;;;;;;10.79;100.00;102462.34;5110896;28;20077;-71
2023/05/31 02:36:13;;;;;;;12.40;6.05;;;;;;;10.77;100.00;102459.84;5110939;28;20032;-71
2023/05/31 02:38:39;;;;;;;13.43;6.65;;;;;;;10.74;100.00;102457.47;5110925;28;20076;-71
2023/05/31 02:41:04;;;;;;;13.15;6.57;;;;;;;10.72;100.00;102457.63;5111071;28;20516;-71
2023/05/31 02:43:30;;;;;;;12.95;6.13;;;;;;;10.68;100.00;102455.44;5111025;28;20048;-71
2023/05/31 02:45:56;;;;;;;14.40;6.53;;;;;;;10.71;100.00;102460.44;5110863;28;20039;-71
2023/05/31 02:48:22;;;;;;;13.85;6.45;;;;;;;10.64;100.00;102452.25;5110823;28;20134;-71
2023/05/31 02:50:47;;;;;;;16.65;8.07;;;;;;;10.64;100.00;102456.75;5099967;28;20474;-71
2023/05/31 02:53:12;;;;;;;12.60;7.22;;;;;;;10.66;100.00;102468.94;5091136;28;20119;-71
2023/05/31 02:55:38;;;;;;;15.35;7.40;;;;;;;10.62;100.00;102458.75;5091154;28;20414;-71
2023/05/31 02:58:03;;;;;;;13.60;6.82;;;;;;;10.63;100.00;102465.75;5073048;28;20032;-71
2023/05/31 03:00:28;;;;;;;13.98;6.72;;;;;;;10.54;100.00;102451.53;5090962;28;20035;-71
2023/05/31 03:02:54;;;;;;;15.05;7.13;;;;;;;10.58;100.00;102460.03;5090953;28;20123;-71
2023/05/31 03:05:20;;;;;;;12.07;6.10;;;;;;;10.53;100.00;102455.16;5072838;28;20466;-71
2023/05/31 03:07:46;;;;;;;13.32;6.38;;;;;;;10.57;100.00;102467.22;5091394;28;20443;-71
2023/05/31 03:10:11;;;;;;;15.32;6.85;;;;;;;10.54;100.00;102459.53;5091122;28;20107;-71
2023/05/31 03:12:37;;;;;;;16.63;8.98;;;;;;;10.53;100.00;102471.16;5090878;28;20072;-71
2023/05/31 03:15:04;;;;;;;13.35;6.72;;;;;;;10.51;100.00;102466.00;5090667;28;20086;-71
2023/05/31 03:17:30;;;;;;;15.20;7.07;;;;;;;10.44;100.00;102459.63;5090772;28;20127;-71
2023/05/31 03:19:55;;;;;;;12.60;6.28;;;;;;;10.44;100.00;102466.78;5090821;28;20108;-71
2023/05/31 03:22:22;;;;;;;12.43;5.70;;;;;;;10.45;100.00;102477.31;5090461;28;20034;-71
2023/05/31 03:24:48;;;;;;;14.00;6.25;;;;;;;10.41;100.00;102470.59;5099250;28;20023;-71
2023/05/31 03:27:14;;;;;;;13.27;6.75;;;;;;;10.43;100.00;102475.78;5109799;28;20038;-71
2023/05/31 03:29:41;;;;;;;14.93;7.55;;;;;;;10.40;100.00;102470.75;5110052;28;20111;-71
2023/05/31 03:32:07;;;;;;;12.00;5.65;;;;;;;10.39;100.00;102472.56;5109729;28;20098;-71
2023/05/31 03:34:32;;;;;;;16.75;7.47;;;;;;;10.37;100.00;102465.72;5109875;28;20114;-71
2023/05/31 03:36:58;;;;;;;18.20;8.38;;;;;;;10.34;100.00;102458.03;5109801;28;20764;-71
2023/05/31 03:39:24;;;;;;;13.30;6.68;;;;;;;10.37;100.00;102463.88;5091764;28;20035;-71
2023/05/31 03:41:49;;;;;;;13.32;6.93;;;;;;;10.30;100.00;102453.03;5109833;28;20111;-71
2023/05/31 03:44:14;;;;;;;17.10;7.45;;;;;;;10.35;100.00;102457.91;5109414;28;20170;-71
2023/05/31 03:46:40;;;;;;;15.25;6.78;;;;;;;10.35;100.00;102460.56;5090204;28;20032;-71
2023/05/31 03:49:06;;;;;;;14.93;6.80;;;;;;;10.31;100.00;102451.19;5090308;28;20060;-71
2023/05/31 03:51:31;;;;;;;14.98;8.45;;;;;;;10.33;100.00;102449.22;5072161;28;20036;-71
2023/05/31 03:53:57;;;;;;;15.35;8.32;;;;;;;10.35;100.00;102463.22;5071764;28;20498;-71
2023/05/31 03:56:22;;;;;;;15.13;7.05;;;;;;;10.38;100.00;102456.75;5089950;28;20038;-71
2023/05/31 03:58:48;;;;;;;13.90;6.70;;;;;;;10.38;100.00;102454.09;5090164;28;20032;-71
2023/05/31 04:01:13;;;;;;;18.65;8.80;;;;;;;10.40;100.00;102462.75;5089851;28;20055;-71
2023/05/31 04:03:38;;;;;;;15.15;7.78;;;;;;;10.36;100.00;102453.41;5089779;28;20035;-71
2023/05/31 04:06:04;;;;;;;15.88;7.78;;;;;;;10.42;100.00;102460.75;5089935;28;20490;-71
2023/05/31 04:08:29;;;;;;;15.25;8.05;;;;;;;10.43;100.00;102451.78;5089830;28;20123;-71
2023/05/31 04:10:55;;;;;;;18.73;7.65;;;;;;;10.45;100.00;102457.78;5089829;28;20051;-72
2023/05/31 04:13:20;;;;;;;16.77;7.85;;;;;;;10.37;100.00;102442.56;5089754;28;20036;-71
2023/05/31 04:15:45;;;;;;;14.05;7.05;;;;;;;10.51;100.00;102463.34;5089879;28;20126;-71
2023/05/31 04:18:11;;;;;;;17.33;8.88;;;;;;;10.52;100.00;102457.00;5089459;28;20063;-71
2023/05/31 04:20:36;;;;;;;14.82;7.80;;;;;;;10.58;100.00;102457.38;5089711;28;20020;-71
2023/05/31 04:23:01;;;;;;;20.98;9.15;;;;;;;10.53;100.00;102452.50;5089539;28;20033;-71
2023/05/31 04:25:27;;;;;;;18.80;8.35;;;;;;;10.60;100.00;102450.06;5089678;28;20032;-71
2023/05/31 04:27:53;;;;;;;14.82;7.70;;;;;;;10.65;100.00;102455.75;5089491;28;20058;-71
2023/05/31 04:30:19;;;;;;;17.58;9.48;;;;;;;10.68;100.00;102455.44;5089504;28;20064;-71
2023/05/31 04:32:45;;;;;;;18.52;9.07;;;;;;;10.77;100.00;102464.31;5089604;28;20059;-71
2023/05/31 04:35:10;;;;;;;17.60;8.57;;;;;;;10.83;100.00;102453.84;5089499;28;20474;-71
2023/05/31 04:37:36;;;;;;;17.45;7.97;;;;;;;10.89;100.00;102455.88;5089473;28;20435;-71
2023/05/31 04:40:05;;;;;;;17.33;7.90;;;;;;;10.95;100.00;102459.75;5089599;28;20024;-71
2023/05/31 04:42:30;;;;;;;19.13;7.95;;;;;;;11.03;100.00;102458.94;5089366;28;20024;-71
2023/05/31 04:44:58;;;;;;;19.23;8.95;;;;;;;11.06;100.00;102450.63;5090617;28;20042;-71
2023/05/31 04:47:24;;;;;;;20.52;9.55;;;;;;;11.14;100.00;102464.03;5093591;28;20042;-71
2023/05/31 04:49:50;;;;;;;14.98;8.43;;;;;;;11.16;100.00;102464.66;5093593;28;20020;-71
2023/05/31 04:52:15;;;;;;;17.40;8.52;;;;;;;11.19;100.00;102457.19;5093632;28;20374;-71
2023/05/31 04:54:41;;;;;;;17.90;10.43;;;;;;;11.19;100.00;102449.19;5093492;28;20433;-71
2023/05/31 04:57:06;;;;;;;18.10;9.30;;;;;;;11.31;100.00;102463.06;5093450;28;20020;-71
2023/05/31 04:59:32;;;;;;;18.63;8.05;;;;;;;11.44;100.00;102464.44;5093403;28;20062;-71
2023/05/31 05:01:57;;;;;;;20.13;8.98;;;;;;;11.46;100.00;102467.81;5093257;28;20051;-71
2023/05/31 05:04:23;;;;;;;18.05;9.10;;;;;;;11.52;100.00;102464.47;5093716;28;20085;-71
2023/05/31 05:06:48;;;;;;;16.35;9.20;;;;;;;11.65;100.00;102467.50;5075397;28;20040;-71
2023/05/31 05:09:13;;;;;;;19.80;8.70;;;;;;;11.75;100.00;102462.84;5093757;28;20485;-71
2023/05/31 05:11:39;;;;;;;23.00;10.77;;;;;;;11.76;100.00;102458.34;5093350;28;20494;-71
2023/05/31 05:14:04;;;;;;;21.02;10.43;;;;;;;11.82;100.00;102466.53;5093452;28;20028;-71
2023/05/31 05:16:30;;;;;;;17.65;8.93;;;;;;;11.81;100.00;102456.00;5093387;28;20070;-71
2023/05/31 05:18:56;;;;;;;18.98;9.43;;;;;;;11.84;100.00;102461.00;5093482;28;20078;-71
2023/05/31 05:21:21;;;;;;;20.48;10.23;;;;;;;11.95;100.00;102465.25;5092986;28;20055;-71
2023/05/31 05:23:46;;;;;;;19.40;10.32;;;;;;;12.05;100.00;102471.25;5093294;28;20050;-71
2023/05/31 05:26:12;;;;;;;16.98;8.93;;;;;;;12.11;100.00;102480.47;5093088;28;20028;-71
2023/05/31 05:28:38;;;;;;;22.50;9.05;;;;;;;12.18;100.00;102474.28;5093182;28;20042;-72
2023/05/31 05:31:03;;;;;;;21.15;9.40;;;;;;;12.30;100.00;102471.28;5092889;28;20394;-72
2023/05/31 05:33:29;;;;;;;17.98;8.55;;;;;;;12.39;100.00;102470.25;5092931;28;20028;-71
2023/05/31 05:35:55;;;;;;;21.27;9.30;;;;;;;12.49;100.00;102476.25;5092637;28;20048;-71
2023/05/31 05:38:20;;;;;;;21.92;11.20;;;;;;;12.53;100.00;102480.28;5092927;28;20500;-72
2023/05/31 05:40:46;;;;;;;17.80;9.07;;;;;;;12.62;100.00;102478.41;5092618;28;20055;-71
2023/05/31 05:43:11;;;;;;;18.70;8.73;;;;;;;12.68;100.00;102478.59;5093010;28;20035;-71
2023/05/31 05:45:37;;;;;;;19.20;8.63;;;;;;;12.77;100.00;102479.41;5092660;28;20028;-71
2023/05/31 05:48:03;;;;;;;20.85;9.55;;;;;;;12.83;100.00;102486.72;5074602;28;20494;-71
2023/05/31 05:50:28;;;;;;;25.17;11.10;;;;;;;12.91;100.00;102480.53;5092744;28;20059;-71
2023/05/31 05:52:54;;;;;;;20.20;10.32;;;;;;;12.98;100.00;102473.47;5092993;28;20054;-71
2023/05/31 05:55:20;;;;;;;17.55;8.68;;;;;;;13.11;100.00;102472.94;5092166;28;20146;-71
2023/05/31 05:57:46;;;;;;;20.95;10.25;;;;;;;13.46;100.00;102468.94;5092732;28;20506;-71
2023/05/31 06:00:12;;;;;;;18.02;7.88;;;;;;;14.05;100.00;102465.72;5092206;28;20036;-71
2023/05/31 06:02:38;;;;;;;20.38;8.50;;;;;;;14.50;96.72;102476.56;5074493;28;20122;-71
2023/05/31 06:05:04;;;;;;;18.88;8.52;;;;;;;14.56;95.96;102482.03;5092588;28;20020;-71
2023/05/31 06:07:30;;;;;;;18.85;8.75;;;;;;;14.39;96.31;102484.03;5092458;28;20077;-71
2023/05/31 06:09:56;;;;;;;20.23;9.27;;;;;;;14.29;97.10;102477.25;5092393;28;20024;-71
2023/05/31 06:12:21;;;;;;;17.13;8.45;;;;;;;14.14;97.36;102475.34;5092092;28;20601;-71
2023/05/31 06:14:48;;;;;;;17.92;8.05;;;;;;;14.09;97.77;102490.31;5091907;28;20024;-70
2023/05/31 06:17:13;;;;;;;20.42;9.90;;;;;;;13.94;97.85;102491.13;5092097;28;20035;-71
2023/05/31 06:19:39;;;;;;;21.17;9.60;;;;;;;13.83;98.84;102475.41;5092230;28;20032;-71
2023/05/31 06:22:04;;;;;;;17.52;9.10;;;;;;;13.85;99.09;102476.06;5092064;28;20028;-71
2023/05/31 06:24:30;;;;;;;16.55;8.68;;;;;;;13.88;97.71;102482.94;5092071;28;20106;-70
2023/05/31 06:26:55;;;;;;;17.05;7.72;;;;;;;13.87;99.42;102482.09;5092075;28;20020;-73
2023/05/31 06:29:21;;;;;;;18.00;7.35;;;;;;;13.89;99.13;102477.41;5095234;28;20027;-71
2023/05/31 06:31:46;;;;;;;18.38;8.73;;;;;;;13.90;98.58;102492.47;5111171;28;20027;-71
2023/05/31 06:34:11;;;;;;;18.98;8.88;;;;;;;13.89;98.31;102482.75;5111230;28;20027;-71
2023/05/31 06:36:37;;;;;;;17.40;8.05;;;;;;;13.91;99.12;102487.94;5091170;28;20028;-71
2023/05/31 06:39:02;;;;;;;19.98;7.18;;;;;;;13.92;99.04;102486.94;5076332;28;20964;-73
2023/05/31 06:41:29;;;;;;;27.70;8.35;;;;;;;13.92;98.93;102495.81;5073169;28;20509;-77
2023/05/31 06:43:55;;;;;;;19.15;8.80;;;;;;;13.95;98.59;102487.41;5101922;27;20023;-76
2023/05/31 06:46:20;;;;;;;20.05;7.72;;;;;;;13.98;97.95;102484.34;5106744;28;20042;-74
2023/05/31 06:48:45;;;;;;;19.23;8.98;;;;;;;14.03;98.58;102489.19;5094006;28;20034;-75
2023/05/31 06:51:11;;;;;;;19.10;8.73;;;;;;;14.09;98.52;102490.31;5102048;28;20027;-75
2023/05/31 06:53:36;;;;;;;18.25;7.78;;;;;;;14.14;98.38;102487.94;5096059;28;20150;-75
2023/05/31 06:56:02;;;;;;;19.40;9.18;;;;;;;14.18;97.11;102487.41;5089595;28;20372;-74
2023/05/31 06:58:33;;;;;;;17.80;9.55;;;;;;;14.25;97.20;102492.88;5091983;28;20028;-74
2023/05/31 07:00:58;;;;;;;21.42;7.90;;;;;;;14.26;96.88;102491.88;5093059;28;20536;-74
2023/05/31 07:03:24;;;;;;;17.70;8.63;;;;;;;14.29;96.55;102488.00;5078626;28;20036;-76
2023/05/31 07:05:50;;;;;;;22.27;10.00;;;;;;;14.33;96.15;102495.50;5076857;28;20113;-77
2023/05/31 07:08:15;;;;;;;16.65;8.75;;;;;;;14.38;95.99;102498.47;5089989;28;20651;-68
2023/05/31 07:10:41;;;;;;;19.20;8.18;;;;;;;14.46;96.37;102498.41;5094626;28;20045;-72
2023/05/31 07:13:07;;;;;;;17.60;8.85;;;;;;;14.53;95.23;102503.91;5094695;28;20351;-80
2023/05/31 07:15:34;;;;;;;15.00;7.13;;;;;;;14.52;94.04;102494.16;5092988;28;20063;-79
2023/05/31 07:17:59;;;;;;;14.13;7.82;;;;;;;14.58;94.16;102495.31;5090732;28;20024;-74
2023/05/31 07:20:24;;;;;;;18.52;8.10;;;;;;;14.66;94.62;102495.22;5091277;28;20024;-79
2023/05/31 07:22:51;;;;;;;20.35;8.43;;;;;;;14.73;94.88;102485.41;5089645;28;20027;-80
2023/05/31 07:25:16;;;;;;;17.48;9.60;;;;;;;14.87;93.87;102489.94;5072758;28;20027;-80
2023/05/31 07:27:42;;;;;;;18.55;8.25;;;;;;;15.00;94.82;102481.25;5073998;28;20707;-80
2023/05/31 07:30:08;;;;;;;18.25;8.13;;;;;;;15.03;92.83;102482.72;5072632;28;20048;-79
2023/05/31 07:32:33;;;;;;;19.35;9.32;;;;;;;15.09;91.85;102485.50;5072460;28;20066;-75
2023/05/31 07:34:59;;;;;;;18.88;9.00;;;;;;;15.12;91.42;102471.69;5090684;28;20057;-79
2023/05/31 07:37:24;;;;;;;18.60;9.23;;;;;;;15.20;92.45;102476.16;5089381;28;20052;-78
2023/05/31 07:39:49;;;;;;;16.38;7.20;;;;;;;15.31;91.91;102464.91;5091971;28;20036;-80
2023/05/31 07:42:15;;;;;;;18.48;7.80;;;;;;;15.40;90.73;102472.84;5090702;28;20482;-78
2023/05/31 07:44:40;;;;;;;18.67;9.00;;;;;;;15.41;89.68;102469.16;5073322;28;20046;-78
2023/05/31 07:47:06;;;;;;;19.08;7.53;;;;;;;15.47;90.71;102460.31;5093496;28;20059;-76
2023/05/31 07:49:31;;;;;;;18.20;7.70;;;;;;;15.54;90.66;102461.25;5077653;28;20113;-76
2023/05/31 07:51:56;;;;;;;18.20;8.30;;;;;;;15.61;89.54;102470.19;5095524;28;20028;-76
2023/05/31 07:54:22;;;;;;;20.10;8.00;;;;;;;15.69;88.32;102462.06;5076359;28;20402;-76
2023/05/31 07:56:48;;;;;;;17.10;9.02;;;;;;;15.78;88.70;102465.44;5093716;28;20075;-77
2023/05/31 07:59:14;;;;;;;16.05;7.30;;;;;;;16.05;89.07;102466.53;5077965;28;20051;-75
2023/05/31 08:01:42;;;;;;;17.88;8.70;;;;;;;16.24;87.24;102465.03;5094134;28;20425;-74
2023/05/31 08:04:09;;;;;;;19.35;7.80;;;;;;;16.28;87.32;102460.09;5092669;28;20111;-81
2023/05/31 08:06:34;;;;;;;16.30;7.10;;;;;;;16.30;85.85;102455.38;5075466;28;20031;-76
2023/05/31 08:09:00;;;;;;;17.52;7.85;;;;;;;16.44;86.31;102462.50;5092486;28;20026;-80
2023/05/31 08:11:27;;;;;;;21.17;8.57;;;;;;;16.54;85.37;102462.16;5074019;28;20036;-76
2023/05/31 08:13:52;;;;;;;14.18;6.95;;;;;;;17.34;82.98;102466.13;5095027;28;20028;-77
2023/05/31 08:16:18;;;;;;;16.38;7.63;;;;;;;19.32;73.65;102460.06;5093724;28;20114;-73
2023/05/31 08:18:44;;;;;;;18.02;8.73;;;;;;;21.40;65.98;102456.94;5093834;28;20027;-74
2023/05/31 08:21:10;;;;;;;13.70;5.90;;;;;;;22.59;59.70;102456.09;5093751;28;20442;-74
2023/05/31 08:23:36;;;;;;;16.25;6.57;;;;;;;23.57;56.28;102457.00;5092997;28;20020;-78
2023/05/31 08:26:02;;;;;;;15.23;7.03;;;;;;;24.45;51.85;102449.22;5090047;28;20032;-73
2023/05/31 08:28:29;;;;;;;15.30;7.43;;;;;;;25.32;50.82;102453.06;5092957;28;20077;-80
2023/05/31 08:30:55;;;;;;;18.20;6.43;;;;;;;25.93;47.18;102447.34;5090745;28;20023;-75
2023/05/31 08:33:20;;;;;;;19.08;6.60;;;;;;;26.15;46.74;102446.44;5093183;28;20054;-77
2023/05/31 08:35:46;;;;;;;12.00;5.13;;;;;;;26.40;43.95;102446.59;5093304;28;20051;-74
2023/05/31 08:38:11;;;;;;;15.88;7.13;;;;;;;25.96;45.82;102446.84;5074947;28;21019;-76
2023/05/31 08:40:37;;;;;;;13.38;6.78;;;;;;;26.39;44.54;102450.41;5094468;28;20051;-74
2023/05/31 08:43:09;;;;;;;15.80;6.47;;;;;;;26.40;45.16;102435.63;5075367;28;20024;-75
2023/05/31 08:45:35;;;;;;;17.70;7.43;;;;;;;26.65;42.86;102445.13;5092355;28;20494;-72
2023/05/31 08:48:06;;;;;;;12.05;6.07;;;;;;;27.21;44.66;102439.84;5075873;28;20070;-75
2023/05/31 08:50:32;;;;;;;15.48;5.72;;;;;;;27.84;41.38;102444.34;5092700;28;20559;-75
2023/05/31 08:52:58;;;;;;;13.15;5.50;;;;;;;28.20;40.66;102423.19;5093881;28;20032;-75
2023/05/31 08:55:24;;;;;;;15.43;6.13;;;;;;;28.13;39.72;102430.88;5094146;28;20470;-74
2023/05/31 08:57:51;;;;;;;14.88;6.28;;;;;;;28.29;39.55;102437.97;5092657;28;20643;-75
2023/05/31 09:00:19;;;;;;;12.50;5.50;;;;;;;27.50;39.45;102425.66;5092749;28;20108;-77
2023/05/31 09:02:46;;;;;;;13.80;6.57;;;;;;;26.15;43.06;102425.38;5070494;28;20036;-75
2023/05/31 09:05:13;;;;;;;13.48;6.20;;;;;;;24.55;46.84;102424.00;5090010;28;20020;-77
2023/05/31 09:07:39;;;;;;;14.85;4.70;;;;;;;23.55;49.80;102428.34;5092217;28;20482;-71
2023/05/31 09:10:07;;;;;;;13.77;6.20;;;;;;;22.56;51.07;102423.94;5092112;28;20046;-72
2023/05/31 09:12:32;;;;;;;17.52;7.18;;;;;;;22.01;53.27;102421.56;5091631;28;20036;-70
2023/05/31 09:14:58;;;;;;;11.60;5.25;;;;;;;21.40;55.44;102416.22;5090899;28;20024;-74
2023/05/31 09:17:24;;;;;;;17.67;5.78;;;;;;;21.08;56.75;102421.03;5074851;28;20063;-78
2023/05/31 09:19:54;;;;;;;13.65;5.80;;;;;;;20.91;58.22;102415.41;5092017;28;20028;-76
2023/05/31 09:22:22;;;;;;;14.20;6.40;;;;;;;20.84;57.97;102411.13;5092871;28;20031;-71
2023/05/31 09:24:56;;;;;;;14.85;4.90;;;;;;;20.79;57.10;102409.91;5091539;28;20070;-68
2023/05/31 09:27:22;;;;;;;17.23;5.07;;;;;;;20.70;57.75;102408.56;5075045;28;20031;-68
2023/05/31 09:29:52;;;;;;;15.77;4.95;;;;;;;20.62;59.21;102402.59;5091395;28;20401;-78
2023/05/31 09:32:19;;;;;;;6.95;4.25;;;;;;;20.67;57.47;102408.16;5094726;28;20398;-72
2023/05/31 09:34:44;;;;;;;9.52;4.35;;;;;;;20.76;57.97;102401.41;5095398;28;20027;-73
2023/05/31 09:37:22;;;;;;;12.85;5.18;;;;;;;20.81;57.12;102398.84;5095687;28;20051;-70
2023/05/31 09:39:54;;;;;;;11.15;5.70;;;;;;;20.82;58.70;102397.75;5096349;28;20032;-71
2023/05/31 09:42:20;;;;;;;11.88;5.18;;;;;;;20.78;56.16;102393.88;5093240;28;20027;-71
2023/05/31 09:44:49;;;;;;;12.65;5.40;;;;;;;20.68;56.92;102374.59;5078866;28;20051;-75
2023/05/31 09:47:14;;;;;;;10.75;5.70;;;;;;;20.78;56.79;102396.59;5069063;28;20027;-70
2023/05/31 09:49:43;;;;;;;12.45;5.35;;;;;;;20.78;57.19;102389.28;5096973;28;20039;-72
2023/05/31 09:52:13;;;;;;;16.48;5.40;;;;;;;20.84;56.39;102384.00;5096206;28;20032;-68
2023/05/31 09:54:39;;;;;;;11.52;4.75;;;;;;;21.04;55.38;102379.16;5095806;28;20102;-72
2023/05/31 09:57:05;;;;;;;10.40;4.85;;;;;;;21.11;57.24;102379.03;5094758;28;20038;-69
2023/05/31 09:59:33;;;;;;;14.55;6.45;;;;;;;21.10;57.00;102380.94;5094363;28;20024;-70
2023/05/31 10:01:59;;;;;;;14.20;5.85;;;;;;;21.10;56.70;102382.81;5095604;28;20023;-69
2023/05/31 10:04:25;;;;;;;11.25;4.47;;;;;;;21.22;57.56;102384.53;5095766;28;20134;-71
2023/05/31 10:06:51;;;;;;;14.45;5.38;;;;;;;21.17;54.87;102370.81;5078797;28;20130;-69
2023/05/31 10:09:17;;;;;;;13.10;5.70;;;;;;;21.22;54.69;102380.97;5096141;28;20036;-70
2023/05/31 10:11:48;;;;;;;11.25;5.28;;;;;;;21.29;54.03;102380.88;5096239;28;20123;-70
2023/05/31 10:14:27;;;;;;;;;;;;;;;21.38;53.09;102377.66;5097003;28;20110;-70
2023/05/31 10:17:01;;;;;;;7.93;3.50;;;;;;;21.43;52.10;102374.22;5078415;28;19914;-70
2023/05/31 10:19:40;;;;;;;10.18;3.70;;;;;;;21.56;53.41;102376.75;5077688;28;20416;-71
2023/05/31 10:22:07;;;;;;;11.02;3.97;;;;;;;21.65;54.24;102377.22;5069186;28;20081;-70
2023/05/31 10:24:49;;;;;;;12.05;4.20;;;;;;;21.66;53.92;102385.13;5095872;28;20045;-70
2023/05/31 10:27:26;;;;;;;13.07;4.47;;;;;;;21.66;54.02;102373.44;5095564;28;20036;-70
2023/05/31 10:30:04;;;;;;;10.73;4.20;;;;;;;21.70;54.03;102357.53;5096596;28;20097;-70
2023/05/31 10:32:33;;;;;;;13.48;4.75;;;;;;;21.75;52.72;102358.47;5095963;28;21639;-70
2023/05/31 10:35:00;;;;;;;7.30;3.70;;;;;;;21.84;53.61;102343.47;5095881;28;20031;-71
2023/05/31 10:37:26;;;;;;;8.80;3.50;;;;;;;21.96;51.72;102358.97;5096336;28;20053;-70
2023/05/31 10:40:10;;;;;;;11.38;5.05;;;;;;;22.03;53.90;102346.91;5077733;28;20098;-71
2023/05/31 10:42:47;;;;;;;10.57;3.58;;;;;;;22.21;53.50;102347.84;5093532;28;20062;-69
2023/05/31 10:45:24;;;;;;;9.63;4.70;;;;;;;22.05;51.06;102349.38;5095316;28;20051;-69
2023/05/31 10:48:02;;;;;;;8.93;3.13;;;;;;;21.91;51.10;102337.09;5096502;28;20043;-69
2023/05/31 10:50:28;;;;;;;8.95;3.25;;;;;;;21.96;51.64;102338.03;5096521;28;20103;-69
2023/05/31 10:53:09;;;;;;;6.32;3.15;;;;;;;22.07;52.11;102326.34;5096139;28;20122;-69
2023/05/31 10:55:40;;;;;;;;;;;;;;;22.30;51.28;102328.22;5077546;28;20028;-69
2023/05/31 10:58:05;;;;;;;10.98;4.43;;;;;;;22.40;49.99;102337.66;5095929;28;19954;-69
2023/05/31 11:00:31;;;;;;;7.22;3.00;;;;;;;22.36;47.17;102341.94;5095969;28;20420;-69
2023/05/31 11:02:58;;;;;;;10.85;4.75;;;;;;;22.31;49.45;102327.16;5095845;28;20049;-70
2023/05/31 11:05:26;;;;;;;6.10;2.88;;;;;;;22.36;50.09;102322.91;5094235;28;20032;-69
2023/05/31 11:07:53;;;;;;;10.23;2.95;;;;;;;22.46;48.64;102325.84;5095866;28;20035;-69
2023/05/31 11:10:28;;;;;;;7.50;3.13;;;;;;;22.48;48.51;102337.31;5095961;28;20080;-68
2023/05/31 11:13:03;;;;;;;10.50;3.13;;;;;;;22.48;49.16;102329.16;5095372;28;20362;-69